Time;durP1;ratioP1;P1;durP2;ratioP2;P2;SDS_P1;SDS_P2;PMS_P1;PMS_P2;Temp;Humidity;BMP_temperature;BMP_pressure;BME280_temperature;BME280_humidity;BME280_pressure;Samples;Min_cycle;Max_cycle;Signal;HPM_P1;HPM_P2
2021/12/22 00:00:19;;;;;;;227.98;72.85;;;;;;;;;;6205179;28;20046;-62
2021/12/22 00:03:44;;;;;;;393.65;110.35;;;;;;;;;;6207689;28;20045;-60
2021/12/22 00:06:45;;;;;;;378.88;106.22;;;;;;;;;;6204039;28;20050;-60
2021/12/22 00:09:46;;;;;;;327.80;97.25;;;;;;;;;;6204842;28;20049;-62
2021/12/22 00:12:48;;;;;;;357.52;104.72;;;;;;;;;;6201308;28;20046;-61
2021/12/22 00:15:49;;;;;;;188.90;73.88;;;;;;;;;;6206004;28;20048;-61
2021/12/22 00:18:49;;;;;;;165.93;65.45;;;;;;;;;;6204309;28;20054;-62
2021/12/22 00:21:50;;;;;;;164.98;65.18;;;;;;;;;;6202852;28;20046;-61
2021/12/22 00:24:51;;;;;;;165.63;72.55;;;;;;;;;;6163261;28;1118793;-62
2021/12/22 00:27:53;;;;;;;219.73;93.47;;;;;;;;;;6200519;28;20050;-61
2021/12/22 00:30:54;;;;;;;220.88;91.45;;;;;;;;;;6205528;28;20061;-62
2021/12/22 00:33:57;;;;;;;248.98;91.72;;;;;;;;;;6208536;28;20485;-61
2021/12/22 00:36:57;;;;;;;246.10;97.20;;;;;;;;;;6208173;28;20054;-62
2021/12/22 00:39:58;;;;;;;194.68;76.40;;;;;;;;;;6203390;28;20093;-60
2021/12/22 00:42:59;;;;;;;168.40;65.93;;;;;;;;;;6205782;28;20145;-60
2021/12/22 00:46:00;;;;;;;208.77;73.75;;;;;;;;;;6199196;28;20485;-60
2021/12/22 00:49:00;;;;;;;246.20;84.57;;;;;;;;;;6205965;28;20613;-60
2021/12/22 00:52:02;;;;;;;225.05;78.18;;;;;;;;;;6200815;28;20632;-60
2021/12/22 00:55:03;;;;;;;147.55;61.70;;;;;;;;;;6201000;28;20092;-60
2021/12/22 00:58:04;;;;;;;154.90;59.13;;;;;;;;;;6205106;28;20050;-60
2021/12/22 01:01:05;;;;;;;151.45;59.13;;;;;;;;;;6199330;28;20081;-61
2021/12/22 01:04:06;;;;;;;162.05;62.58;;;;;;;;;;6205150;28;20213;-60
2021/12/22 01:07:07;;;;;;;162.13;62.92;;;;;;;;;;6207723;28;20092;-61
2021/12/22 01:10:09;;;;;;;154.30;63.10;;;;;;;;;;6203918;28;20051;-61
2021/12/22 01:13:12;;;;;;;156.82;60.65;;;;;;;;;;6202609;28;20069;-60
2021/12/22 01:16:12;;;;;;;;;;;;;;;;;;6208781;28;20128;-60
2021/12/22 01:19:21;;;;;;;134.25;54.28;;;;;;;;;;6200796;28;20032;-60
2021/12/22 01:22:33;;;;;;;120.32;48.28;;;;;;;;;;6205906;28;20045;-60
2021/12/22 01:25:42;;;;;;;113.22;48.45;;;;;;;;;;6207197;28;20515;-61
2021/12/22 01:28:43;;;;;;;117.38;48.28;;;;;;;;;;6203939;28;20060;-62
2021/12/22 01:31:44;;;;;;;91.60;38.97;;;;;;;;;;6213700;28;20038;-62
2021/12/22 01:34:45;;;;;;;91.88;40.67;;;;;;;;;;6206856;28;20050;-62
2021/12/22 01:37:45;;;;;;;84.13;34.03;;;;;;;;;;6205378;28;20103;-62
2021/12/22 01:40:47;;;;;;;83.57;35.53;;;;;;;;;;6199779;28;20089;-62
2021/12/22 01:43:48;;;;;;;77.93;32.15;;;;;;;;;;6200603;28;20058;-62
2021/12/22 01:50:14;;;;;;;77.40;29.20;;;;;;;;;;6205444;28;20069;-62
2021/12/22 01:53:20;;;;;;;74.05;30.02;;;;;;;;;;6199891;28;20053;-62
2021/12/22 01:56:24;;;;;;;77.57;36.10;;;;;;;;;;6199346;28;20046;-62
2021/12/22 01:59:24;;;;;;;78.97;31.05;;;;;;;;;;6198917;28;20100;-60
2021/12/22 02:02:25;;;;;;;75.95;30.67;;;;;;;;;;6201257;28;20512;-60
2021/12/22 02:05:26;;;;;;;71.30;27.38;;;;;;;;;;6206082;28;20050;-60
2021/12/22 02:08:26;;;;;;;70.57;30.50;;;;;;;;;;6198444;28;20141;-60
2021/12/22 02:11:27;;;;;;;67.70;28.50;;;;;;;;;;6201892;28;20046;-62
2021/12/22 02:14:28;;;;;;;75.28;30.45;;;;;;;;;;6199534;28;20085;-60
2021/12/22 02:17:28;;;;;;;71.80;28.75;;;;;;;;;;6203790;28;20054;-62
2021/12/22 02:20:29;;;;;;;67.43;30.23;;;;;;;;;;6200609;28;20057;-62
2021/12/22 02:23:31;;;;;;;71.47;29.70;;;;;;;;;;6205831;28;20054;-62
2021/12/22 02:26:40;;;;;;;69.57;29.60;;;;;;;;;;6201215;28;20049;-62
2021/12/22 02:29:46;;;;;;;74.00;32.40;;;;;;;;;;6203252;28;20146;-62
2021/12/22 02:39:07;;;;;;;55.25;24.13;;;;;;;;;;6204718;28;20050;-61
2021/12/22 02:42:11;;;;;;;57.55;24.45;;;;;;;;;;6211064;28;20076;-61
2021/12/22 02:45:17;;;;;;;57.85;25.52;;;;;;;;;;6203277;28;20436;-62
2021/12/22 02:48:18;;;;;;;56.80;24.48;;;;;;;;;;6201581;28;20224;-62
2021/12/22 02:51:20;;;;;;;55.45;26.42;;;;;;;;;;6204213;28;20045;-60
2021/12/22 02:54:26;;;;;;;62.53;26.10;;;;;;;;;;6204189;28;20045;-60
2021/12/22 02:57:35;;;;;;;62.22;24.88;;;;;;;;;;6199671;28;20503;-62
2021/12/22 03:04:02;;;;;;;69.47;28.65;;;;;;;;;;6214705;28;20065;-62
2021/12/22 03:07:10;;;;;;;72.40;29.98;;;;;;;;;;6216876;28;20161;-62
2021/12/22 03:10:14;;;;;;;63.85;29.10;;;;;;;;;;6202456;28;20133;-61
2021/12/22 03:13:15;;;;;;;71.35;30.42;;;;;;;;;;6201835;28;20042;-61
2021/12/22 03:16:18;;;;;;;74.28;31.25;;;;;;;;;;6206446;28;20056;-61
2021/12/22 03:19:22;;;;;;;82.88;34.50;;;;;;;;;;6205066;28;20759;-61
2021/12/22 03:22:24;;;;;;;79.50;31.85;;;;;;;;;;6207292;28;20134;-61
2021/12/22 03:25:27;;;;;;;79.75;32.47;;;;;;;;;;6203111;28;20072;-61
2021/12/22 03:28:27;;;;;;;79.28;33.25;;;;;;;;;;6204362;28;20050;-61
2021/12/22 03:31:28;;;;;;;79.05;32.60;;;;;;;;;;6202935;28;20108;-61
2021/12/22 03:34:29;;;;;;;77.38;31.70;;;;;;;;;;6207264;28;20068;-61
2021/12/22 03:37:29;;;;;;;75.70;32.13;;;;;;;;;;6209139;28;20057;-61
2021/12/22 03:40:31;;;;;;;67.95;30.42;;;;;;;;;;6205447;28;20440;-61
2021/12/22 03:43:32;;;;;;;77.20;31.50;;;;;;;;;;6200371;28;20069;-61
2021/12/22 03:46:33;;;;;;;70.50;31.35;;;;;;;;;;6205015;28;20455;-62
2021/12/22 03:49:35;;;;;;;75.65;31.73;;;;;;;;;;6203541;28;21114;-61
2021/12/22 03:52:36;;;;;;;74.78;32.53;;;;;;;;;;6208158;28;20052;-61
2021/12/22 03:55:36;;;;;;;78.60;32.85;;;;;;;;;;6207103;28;20155;-62
2021/12/22 03:58:37;;;;;;;77.38;32.78;;;;;;;;;;6204291;28;20043;-61
2021/12/22 04:01:38;;;;;;;74.97;32.30;;;;;;;;;;6205786;28;20553;-62
2021/12/22 04:04:39;;;;;;;73.57;33.35;;;;;;;;;;6206416;28;20141;-60
2021/12/22 04:07:40;;;;;;;78.80;34.47;;;;;;;;;;6203351;28;20052;-62
2021/12/22 04:10:41;;;;;;;82.22;33.60;;;;;;;;;;6201183;28;20662;-60
2021/12/22 04:13:41;;;;;;;73.38;32.20;;;;;;;;;;6205741;28;20046;-60
2021/12/22 04:16:42;;;;;;;77.90;34.28;;;;;;;;;;6204285;28;20097;-61
2021/12/22 04:19:43;;;;;;;80.93;33.80;;;;;;;;;;6204043;28;20050;-60
2021/12/22 04:22:43;;;;;;;76.97;33.78;;;;;;;;;;6207938;28;20044;-60
2021/12/22 04:25:46;;;;;;;78.93;34.00;;;;;;;;;;6207534;28;20577;-61
2021/12/22 04:28:46;;;;;;;80.47;34.90;;;;;;;;;;6207063;28;20046;-60
2021/12/22 04:31:47;;;;;;;73.72;32.55;;;;;;;;;;6205289;28;20038;-60
2021/12/22 04:34:47;;;;;;;75.40;33.33;;;;;;;;;;6200903;28;20053;-60
2021/12/22 04:37:48;;;;;;;78.93;33.65;;;;;;;;;;6203833;28;20398;-63
2021/12/22 04:40:49;;;;;;;79.65;32.67;;;;;;;;;;6206632;28;20764;-62
2021/12/22 04:43:49;;;;;;;79.93;33.65;;;;;;;;;;6204092;28;20045;-62
2021/12/22 04:46:50;;;;;;;79.10;34.97;;;;;;;;;;6209036;28;20046;-60
2021/12/22 04:49:51;;;;;;;75.75;33.50;;;;;;;;;;6202350;28;20050;-62
2021/12/22 04:55:56;;;;;;;83.43;35.63;;;;;;;;;;6201352;28;20539;-62
2021/12/22 04:58:57;;;;;;;79.82;35.00;;;;;;;;;;6202978;28;20046;-62
2021/12/22 05:01:58;;;;;;;78.68;31.55;;;;;;;;;;6197933;28;20046;-62
2021/12/22 05:04:58;;;;;;;73.00;31.92;;;;;;;;;;6199996;28;20497;-62
2021/12/22 05:07:59;;;;;;;74.07;32.53;;;;;;;;;;6200186;28;20085;-61
2021/12/22 05:11:00;;;;;;;71.43;32.83;;;;;;;;;;6199979;28;20584;-61
2021/12/22 05:14:03;;;;;;;82.82;33.53;;;;;;;;;;6203373;28;20520;-61
2021/12/22 05:17:05;;;;;;;82.28;32.72;;;;;;;;;;6202974;28;20058;-62
2021/12/22 05:20:07;;;;;;;80.05;34.13;;;;;;;;;;6196601;28;20046;-61
2021/12/22 05:23:07;;;;;;;83.25;33.50;;;;;;;;;;6205369;28;20412;-61
2021/12/22 05:26:08;;;;;;;77.22;32.15;;;;;;;;;;6206612;28;20056;-61
2021/12/22 05:29:09;;;;;;;80.82;32.67;;;;;;;;;;6199326;28;20197;-61
2021/12/22 05:32:10;;;;;;;79.85;31.35;;;;;;;;;;6201693;28;20127;-62
2021/12/22 05:35:11;;;;;;;82.72;32.85;;;;;;;;;;6204116;28;20050;-61
2021/12/22 05:38:12;;;;;;;85.22;32.75;;;;;;;;;;6204517;28;20125;-61
2021/12/22 05:41:13;;;;;;;76.85;32.65;;;;;;;;;;6205363;28;20474;-61
2021/12/22 05:44:13;;;;;;;78.20;32.60;;;;;;;;;;6205090;28;20042;-61
2021/12/22 05:47:14;;;;;;;77.80;30.35;;;;;;;;;;6206311;28;20050;-62
2021/12/22 05:50:15;;;;;;;80.78;32.88;;;;;;;;;;6199714;28;20140;-61
2021/12/22 05:53:15;;;;;;;81.07;34.10;;;;;;;;;;6205992;28;20046;-61
2021/12/22 05:56:16;;;;;;;72.35;32.17;;;;;;;;;;6203308;28;20384;-61
2021/12/22 05:59:17;;;;;;;74.43;32.28;;;;;;;;;;6207821;28;20498;-61
2021/12/22 06:02:18;;;;;;;79.25;34.15;;;;;;;;;;6202593;28;20042;-61
2021/12/22 06:05:19;;;;;;;78.63;32.67;;;;;;;;;;6197490;28;20606;-61
2021/12/22 06:08:19;;;;;;;75.38;31.33;;;;;;;;;;6198701;28;20050;-62
2021/12/22 06:11:20;;;;;;;78.97;33.28;;;;;;;;;;6205661;28;20050;-61
2021/12/22 06:14:20;;;;;;;76.88;31.23;;;;;;;;;;6202678;28;20081;-61
2021/12/22 06:17:21;;;;;;;66.40;29.63;;;;;;;;;;6201356;28;20046;-61
2021/12/22 06:20:23;;;;;;;69.38;28.92;;;;;;;;;;6204183;28;20066;-62
2021/12/22 06:23:24;;;;;;;75.88;32.25;;;;;;;;;;6206283;28;20346;-61
2021/12/22 06:26:24;;;;;;;72.07;31.27;;;;;;;;;;6205866;28;20058;-61
2021/12/22 06:29:25;;;;;;;69.45;30.92;;;;;;;;;;6200406;28;20080;-61
2021/12/22 06:32:26;;;;;;;58.53;26.88;;;;;;;;;;6205420;28;20193;-61
2021/12/22 06:35:27;;;;;;;58.88;27.33;;;;;;;;;;6204277;28;20756;-61
2021/12/22 06:38:28;;;;;;;55.17;23.23;;;;;;;;;;6197012;28;20042;-62
2021/12/22 06:41:30;;;;;;;49.17;22.73;;;;;;;;;;6205026;28;20551;-61
2021/12/22 06:44:31;;;;;;;48.45;21.70;;;;;;;;;;6207691;28;20099;-61
2021/12/22 06:47:32;;;;;;;45.80;20.38;;;;;;;;;;6206592;28;20489;-61
2021/12/22 06:50:32;;;;;;;44.25;20.08;;;;;;;;;;6207821;28;20038;-61
2021/12/22 06:53:36;;;;;;;49.10;20.58;;;;;;;;;;6212748;28;20034;-61
2021/12/22 06:56:38;;;;;;;41.28;18.75;;;;;;;;;;6209415;28;20405;-61
2021/12/22 06:59:38;;;;;;;39.17;20.10;;;;;;;;;;6205165;28;20046;-61
2021/12/22 07:02:40;;;;;;;35.10;16.67;;;;;;;;;;6219371;28;20469;-63
2021/12/22 07:05:40;;;;;;;38.90;18.67;;;;;;;;;;6219177;28;20053;-62
2021/12/22 07:08:41;;;;;;;44.88;18.13;;;;;;;;;;6205237;28;20486;-62
2021/12/22 07:11:43;;;;;;;42.72;18.95;;;;;;;;;;6214544;28;20054;-62
2021/12/22 07:14:44;;;;;;;38.85;19.42;;;;;;;;;;6200329;28;20058;-62
2021/12/22 07:17:47;;;;;;;43.65;18.90;;;;;;;;;;6214342;28;20547;-62
2021/12/22 07:20:47;;;;;;;45.55;19.73;;;;;;;;;;6216970;28;20043;-62
2021/12/22 07:23:48;;;;;;;46.90;19.50;;;;;;;;;;6212514;28;20085;-61
2021/12/22 07:26:49;;;;;;;42.53;19.30;;;;;;;;;;6199332;28;20503;-62
2021/12/22 07:29:50;;;;;;;46.92;21.02;;;;;;;;;;6206926;28;20615;-62
2021/12/22 07:32:51;;;;;;;52.25;26.05;;;;;;;;;;6207901;28;20104;-61
2021/12/22 07:36:01;;;;;;;45.47;21.15;;;;;;;;;;6202224;28;20061;-68
2021/12/22 07:39:03;;;;;;;37.22;18.35;;;;;;;;;;6211384;28;20083;-60
2021/12/22 07:42:04;;;;;;;44.22;19.15;;;;;;;;;;6202694;28;20084;-58
2021/12/22 07:45:06;;;;;;;40.47;17.88;;;;;;;;;;6208344;28;20111;-59
2021/12/22 07:48:06;;;;;;;45.22;18.25;;;;;;;;;;6204021;28;20169;-59
2021/12/22 07:51:07;;;;;;;39.05;16.40;;;;;;;;;;6204013;28;21587;-60
2021/12/22 07:54:07;;;;;;;36.10;15.43;;;;;;;;;;6206434;28;20057;-61
2021/12/22 07:57:08;;;;;;;32.33;15.18;;;;;;;;;;6207680;28;20065;-60
2021/12/22 08:00:09;;;;;;;40.00;16.88;;;;;;;;;;6206615;28;20061;-59
2021/12/22 08:03:12;;;;;;;31.40;14.40;;;;;;;;;;6204209;28;20664;-60
2021/12/22 08:06:13;;;;;;;39.72;19.77;;;;;;;;;;6207349;28;20065;-61
2021/12/22 08:09:14;;;;;;;32.45;15.65;;;;;;;;;;6206304;28;20053;-61
2021/12/22 08:12:15;;;;;;;33.85;16.25;;;;;;;;;;6203314;28;20046;-61
2021/12/22 08:15:16;;;;;;;35.53;15.35;;;;;;;;;;6207969;28;20056;-61
2021/12/22 08:18:16;;;;;;;31.90;15.60;;;;;;;;;;6206503;28;20049;-61
2021/12/22 08:21:17;;;;;;;32.72;14.90;;;;;;;;;;6203924;28;20056;-60
2021/12/22 08:24:18;;;;;;;29.17;13.77;;;;;;;;;;6205766;28;20073;-61
2021/12/22 08:27:21;;;;;;;32.70;14.25;;;;;;;;;;6206746;28;20074;-61
2021/12/22 08:30:22;;;;;;;29.02;13.00;;;;;;;;;;6204310;28;20054;-64
2021/12/22 08:33:26;;;;;;;25.98;12.45;;;;;;;;;;6207179;28;20053;-62
2021/12/22 08:39:46;;;;;;;34.75;15.00;;;;;;;;;;6206720;28;20050;-63
2021/12/22 08:42:48;;;;;;;33.22;14.85;;;;;;;;;;6204752;28;20045;-60
2021/12/22 08:45:49;;;;;;;31.35;14.30;;;;;;;;;;6203059;28;20570;-60
2021/12/22 08:48:50;;;;;;;34.67;13.75;;;;;;;;;;6205317;28;20050;-56
2021/12/22 08:51:51;;;;;;;25.77;12.48;;;;;;;;;;6203994;28;20046;-58
2021/12/22 08:54:52;;;;;;;31.83;13.15;;;;;;;;;;6206154;28;20054;-62
2021/12/22 08:57:52;;;;;;;29.88;12.30;;;;;;;;;;6205381;28;20184;-59
2021/12/22 09:00:53;;;;;;;35.63;14.13;;;;;;;;;;6203843;28;21267;-62
2021/12/22 09:03:54;;;;;;;37.65;16.85;;;;;;;;;;6207183;28;20053;-61
2021/12/22 09:06:55;;;;;;;43.28;19.42;;;;;;;;;;6206305;28;20457;-63
2021/12/22 09:09:55;;;;;;;35.40;14.85;;;;;;;;;;6202432;28;20061;-66
2021/12/22 09:12:56;;;;;;;27.27;11.38;;;;;;;;;;6211353;28;20087;-63
2021/12/22 09:15:57;;;;;;;33.67;13.57;;;;;;;;;;6205845;28;20060;-62
2021/12/22 09:18:57;;;;;;;27.02;11.75;;;;;;;;;;6205501;28;20137;-62
2021/12/22 09:21:59;;;;;;;21.75;10.25;;;;;;;;;;6203797;28;20180;-62
2021/12/22 09:24:59;;;;;;;23.45;10.07;;;;;;;;;;6205773;28;20501;-61
2021/12/22 09:28:01;;;;;;;17.83;8.02;;;;;;;;;;6205234;28;20131;-63
2021/12/22 09:31:04;;;;;;;19.70;9.27;;;;;;;;;;6201465;28;20049;-64
2021/12/22 09:34:05;;;;;;;21.08;9.07;;;;;;;;;;6204312;28;20081;-69
2021/12/22 09:37:06;;;;;;;18.33;8.50;;;;;;;;;;6205255;28;20536;-67
2021/12/22 09:40:08;;;;;;;20.25;9.50;;;;;;;;;;6202884;28;20089;-62
2021/12/22 09:43:09;;;;;;;20.10;9.23;;;;;;;;;;6204364;28;20081;-65
2021/12/22 09:46:13;;;;;;;20.85;8.85;;;;;;;;;;6206168;28;20544;-68
2021/12/22 09:49:35;;;;;;;20.75;9.02;;;;;;;;;;6204748;28;20092;-68
2021/12/22 09:52:38;;;;;;;21.63;9.50;;;;;;;;;;6200358;28;20056;-67
2021/12/22 09:55:39;;;;;;;19.65;8.88;;;;;;;;;;6207145;28;20468;-70
2021/12/22 09:58:41;;;;;;;19.65;9.30;;;;;;;;;;6205162;28;20144;-65
2021/12/22 10:01:42;;;;;;;23.70;10.70;;;;;;;;;;6200875;28;20108;-68
2021/12/22 10:04:43;;;;;;;25.23;10.18;;;;;;;;;;6207741;28;20789;-68
2021/12/22 10:07:44;;;;;;;20.70;9.32;;;;;;;;;;6206231;28;20412;-66
2021/12/22 10:11:10;;;;;;;19.33;9.33;;;;;;;;;;6202203;28;20073;-65
2021/12/22 10:14:25;;;;;;;21.77;8.77;;;;;;;;;;6202827;28;20716;-65
2021/12/22 10:17:38;;;;;;;21.88;10.23;;;;;;;;;;6204114;28;20133;-66
2021/12/22 10:20:39;;;;;;;;;;;;;;;;;;6203531;28;20065;-67
2021/12/22 10:23:46;;;;;;;24.40;10.10;;;;;;;;;;6201812;28;19929;-68
2021/12/22 10:26:47;;;;;;;22.60;10.02;;;;;;;;;;6208951;28;20058;-61
2021/12/22 10:29:48;;;;;;;22.40;10.30;;;;;;;;;;6207493;28;20504;-66
2021/12/22 10:32:49;;;;;;;24.02;10.52;;;;;;;;;;6207495;28;20047;-61
2021/12/22 10:35:56;;;;;;;21.73;9.57;;;;;;;;;;6208782;28;20111;-62
2021/12/22 10:39:00;;;;;;;15.00;7.80;;;;;;;;;;6208397;28;20050;-67
2021/12/22 10:42:09;;;;;;;11.98;6.28;;;;;;;;;;6209148;28;20116;-68
2021/12/22 10:45:12;;;;;;;14.40;7.03;;;;;;;;;;6208934;28;20680;-66
2021/12/22 10:51:42;;;;;;;20.05;8.85;;;;;;;;;;6208847;28;20085;-67
2021/12/22 10:54:43;;;;;;;16.05;7.20;;;;;;;;;;6211013;28;20054;-67
2021/12/22 10:57:47;;;;;;;22.05;9.80;;;;;;;;;;6209197;28;20042;-68
2021/12/22 11:01:07;;;;;;;19.98;9.48;;;;;;;;;;6211255;28;20623;-65
2021/12/22 11:04:17;;;;;;;18.75;8.50;;;;;;;;;;6211535;28;20057;-62
2021/12/22 11:07:24;;;;;;;17.00;8.10;;;;;;;;;;6212733;28;20058;-63
2021/12/22 11:10:29;;;;;;;18.15;9.30;;;;;;;;;;6186505;28;20670;-67
2021/12/22 11:13:30;;;;;;;15.70;7.50;;;;;;;;;;6197451;28;20169;-62
2021/12/22 11:16:31;;;;;;;16.58;8.30;;;;;;;;;;6201680;28;20991;-64
2021/12/22 11:19:49;;;;;;;13.70;6.88;;;;;;;;;;6200975;28;20144;-66
2021/12/22 11:22:59;;;;;;;20.95;8.90;;;;;;;;;;6196479;28;20051;-65
2021/12/22 11:26:00;;;;;;;18.17;8.07;;;;;;;;;;6199155;28;20095;-65
2021/12/22 11:29:01;;;;;;;14.43;7.38;;;;;;;;;;6200302;28;20050;-66
2021/12/22 11:32:05;;;;;;;14.77;6.68;;;;;;;;;;6203070;28;20053;-66
2021/12/22 11:35:08;;;;;;;15.45;7.15;;;;;;;;;;6201833;28;20500;-65
2021/12/22 11:38:10;;;;;;;17.25;7.95;;;;;;;;;;6201009;28;20473;-66
2021/12/22 11:41:14;;;;;;;17.17;6.72;;;;;;;;;;6197453;28;20097;-64
2021/12/22 11:44:15;;;;;;;17.83;7.72;;;;;;;;;;6201445;28;20097;-62
2021/12/22 11:47:16;;;;;;;17.45;7.80;;;;;;;;;;6201627;28;20046;-64
2021/12/22 11:50:22;;;;;;;19.23;8.38;;;;;;;;;;6198949;28;20534;-60
2021/12/22 11:53:23;;;;;;;15.90;7.50;;;;;;;;;;6201275;28;20049;-66
2021/12/22 11:56:38;;;;;;;17.25;8.02;;;;;;;;;;6199584;28;20148;-61
2021/12/22 11:59:40;;;;;;;18.38;8.52;;;;;;;;;;6199373;28;20172;-64
2021/12/22 12:02:41;;;;;;;16.38;8.80;;;;;;;;;;6196761;28;20089;-61
2021/12/22 12:06:00;;;;;;;22.70;10.55;;;;;;;;;;6199382;28;20560;-64
2021/12/22 12:09:11;;;;;;;18.52;9.20;;;;;;;;;;6199306;28;21299;-61
2021/12/22 12:12:44;;;;;;;22.20;9.80;;;;;;;;;;6198930;28;20050;-68
2021/12/22 12:21:38;;;;;;;24.92;9.32;;;;;;;;;;6199789;28;20045;-60
2021/12/22 12:22:51;;;;;;;21.15;9.15;;;;;;;;;;6204122;28;20520;-62
2021/12/22 12:25:51;;;;;;;21.15;9.45;;;;;;;;;;6208016;28;20065;-65
2021/12/22 12:28:52;;;;;;;19.65;8.80;;;;;;;;;;6200196;28;20143;-64
2021/12/22 12:31:53;;;;;;;20.75;9.57;;;;;;;;;;6197663;28;20661;-63
2021/12/22 12:35:19;;;;;;;23.48;9.50;;;;;;;;;;6201883;28;20081;-66
2021/12/22 12:38:30;;;;;;;19.23;8.25;;;;;;;;;;6200554;28;20418;-64
2021/12/22 12:41:32;;;;;;;19.92;7.93;;;;;;;;;;6197720;28;20913;-70
2021/12/22 12:44:32;;;;;;;20.23;10.02;;;;;;;;;;6196348;28;20050;-71
2021/12/22 12:47:33;;;;;;;17.17;8.60;;;;;;;;;;6200526;28;20068;-71
2021/12/22 12:50:33;;;;;;;15.43;7.65;;;;;;;;;;6196494;28;20046;-66
2021/12/22 12:53:40;;;;;;;18.08;7.70;;;;;;;;;;6200086;28;20037;-61
2021/12/22 12:56:43;;;;;;;13.90;6.38;;;;;;;;;;6200010;28;20140;-69
2021/12/22 13:00:05;;;;;;;15.55;6.47;;;;;;;;;;6200229;28;20477;-61
2021/12/22 13:03:06;;;;;;;12.65;6.75;;;;;;;;;;6201262;28;20053;-63
2021/12/22 13:06:10;;;;;;;18.13;6.17;;;;;;;;;;6206189;28;20575;-70
2021/12/22 13:09:31;;;;;;;14.52;6.35;;;;;;;;;;6208109;28;20127;-64
2021/12/22 13:15:46;;;;;;;14.45;7.07;;;;;;;;;;6202757;28;20187;-60
2021/12/22 13:18:48;;;;;;;18.05;7.22;;;;;;;;;;6204035;28;20536;-62
2021/12/22 13:21:48;;;;;;;14.87;6.73;;;;;;;;;;6202990;28;20068;-62
2021/12/22 13:25:25;;;;;;;20.45;7.78;;;;;;;;;;6199608;28;20505;-62
2021/12/22 13:28:28;;;;;;;15.13;7.20;;;;;;;;;;6199784;28;20141;-63
2021/12/22 13:31:28;;;;;;;15.23;6.72;;;;;;;;;;6207753;28;20088;-67
2021/12/22 13:34:42;;;;;;;17.48;7.63;;;;;;;;;;6210084;28;20421;-67
2021/12/22 13:37:50;;;;;;;20.90;7.30;;;;;;;;;;6204817;28;20050;-64
2021/12/22 13:40:59;;;;;;;20.05;6.55;;;;;;;;;;6207086;28;20058;-63
2021/12/22 13:44:02;;;;;;;21.75;7.43;;;;;;;;;;6207971;28;20086;-62
2021/12/22 13:47:03;;;;;;;18.63;7.22;;;;;;;;;;6208318;28;20497;-60
2021/12/22 13:50:05;;;;;;;15.95;7.40;;;;;;;;;;6209161;28;20140;-68
2021/12/22 13:53:06;;;;;;;16.27;7.80;;;;;;;;;;6206739;28;20084;-65
2021/12/22 13:56:10;;;;;;;15.38;7.53;;;;;;;;;;6209675;28;20100;-66
2021/12/22 13:59:15;;;;;;;14.88;7.32;;;;;;;;;;6207970;28;20061;-65
2021/12/22 14:02:34;;;;;;;14.07;6.50;;;;;;;;;;6206345;28;20409;-64
2021/12/22 14:05:35;;;;;;;16.73;7.15;;;;;;;;;;6207803;28;20482;-68
2021/12/22 14:08:37;;;;;;;22.33;8.10;;;;;;;;;;6205918;28;20108;-70
2021/12/22 14:12:09;;;;;;;21.10;8.38;;;;;;;;;;6203591;28;20166;-64
2021/12/22 14:15:11;;;;;;;19.67;8.45;;;;;;;;;;6204898;28;20054;-61
2021/12/22 14:18:11;;;;;;;22.75;9.73;;;;;;;;;;6207634;28;20073;-68
2021/12/22 14:21:25;;;;;;;22.85;9.25;;;;;;;;;;6205837;28;21240;-65
2021/12/22 14:24:37;;;;;;;19.70;8.98;;;;;;;;;;6207487;28;20512;-61
2021/12/22 14:27:46;;;;;;;18.67;8.05;;;;;;;;;;6208844;28;20073;-66
2021/12/22 14:30:47;;;;;;;20.73;8.75;;;;;;;;;;6206541;28;20406;-70
2021/12/22 14:34:08;;;;;;;25.75;11.27;;;;;;;;;;6206206;28;20473;-64
2021/12/22 14:37:09;;;;;;;22.65;9.98;;;;;;;;;;6208005;28;20062;-66
2021/12/22 14:40:13;;;;;;;28.75;11.15;;;;;;;;;;6207432;28;20054;-67
2021/12/22 14:43:13;;;;;;;30.77;13.85;;;;;;;;;;6206358;28;20053;-63
2021/12/22 14:46:37;;;;;;;41.25;20.15;;;;;;;;;;6207354;28;20410;-63
2021/12/22 14:49:38;;;;;;;40.17;16.83;;;;;;;;;;6204064;28;20057;-62
2021/12/22 14:53:11;;;;;;;46.17;19.10;;;;;;;;;;6204021;28;20402;-61
2021/12/22 14:56:13;;;;;;;120.22;45.47;;;;;;;;;;6205820;28;20088;-63
2021/12/22 14:59:14;;;;;;;;;;;;;;;;;;6206820;28;20137;-64
2021/12/22 15:02:15;;;;;;;82.97;31.58;;;;;;;;;;6203970;28;19925;-60
2021/12/22 15:05:16;;;;;;;54.42;24.33;;;;;;;;;;6206014;28;20054;-62
2021/12/22 15:08:16;;;;;;;50.17;18.58;;;;;;;;;;6202914;28;20052;-61
2021/12/22 15:11:19;;;;;;;70.30;25.08;;;;;;;;;;6198771;28;20074;-63
2021/12/22 15:14:19;;;;;;;;;;;;;;;;;;6210335;28;20046;-64
2021/12/22 15:17:20;;;;;;;71.00;25.70;;;;;;;;;;6207753;28;20019;-61
2021/12/22 15:20:20;;;;;;;89.72;32.80;;;;;;;;;;6203259;28;20054;-61
2021/12/22 15:23:21;;;;;;;74.50;28.50;;;;;;;;;;6204861;28;20108;-62
2021/12/22 15:26:23;;;;;;;80.63;27.02;;;;;;;;;;6207337;28;20413;-62
2021/12/22 15:29:24;;;;;;;;;;;;;;;;;;6209532;28;20532;-64
2021/12/22 15:32:25;;;;;;;144.95;41.05;;;;;;;;;;6207233;28;19921;-62
2021/12/22 15:35:25;;;;;;;155.10;45.78;;;;;;;;;;6209617;28;20473;-65
2021/12/22 15:38:26;;;;;;;212.00;55.38;;;;;;;;;;6207816;28;20041;-62
2021/12/22 15:41:27;;;;;;;176.60;52.30;;;;;;;;;;6208028;28;20106;-64
2021/12/22 15:44:28;;;;;;;181.07;50.83;;;;;;;;;;6208152;28;20569;-62
2021/12/22 15:47:28;;;;;;;220.02;62.38;;;;;;;;;;6208185;28;20417;-61
2021/12/22 15:50:31;;;;;;;225.10;62.30;;;;;;;;;;6208406;28;20048;-64
2021/12/22 15:53:32;;;;;;;;;;;;;;;;;;6210208;28;20052;-64
2021/12/22 15:56:32;;;;;;;206.88;62.45;;;;;;;;;;6208387;28;19929;-65
2021/12/22 15:59:33;;;;;;;230.43;66.47;;;;;;;;;;6209016;28;20413;-63
2021/12/22 16:02:34;;;;;;;248.85;72.68;;;;;;;;;;6208687;28;20555;-65
2021/12/22 16:05:35;;;;;;;225.90;65.13;;;;;;;;;;6207708;28;20062;-63
2021/12/22 16:08:35;;;;;;;243.90;66.78;;;;;;;;;;6208216;28;20049;-67
2021/12/22 16:11:36;;;;;;;236.35;65.72;;;;;;;;;;6206457;28;20052;-62
2021/12/22 16:14:37;;;;;;;229.68;62.45;;;;;;;;;;6209831;28;20054;-64
2021/12/22 16:17:37;;;;;;;203.25;55.92;;;;;;;;;;6204927;28;20053;-64
2021/12/22 16:20:40;;;;;;;224.57;64.15;;;;;;;;;;6208030;28;20973;-66
2021/12/22 16:23:41;;;;;;;153.75;46.13;;;;;;;;;;6210035;28;20149;-61
2021/12/22 16:26:42;;;;;;;155.00;45.42;;;;;;;;;;6209393;28;20054;-63
2021/12/22 16:29:43;;;;;;;181.13;50.25;;;;;;;;;;6211367;28;20050;-65
2021/12/22 16:32:43;;;;;;;172.15;52.67;;;;;;;;;;6207334;28;20049;-65
2021/12/22 16:35:44;;;;;;;128.32;39.85;;;;;;;;;;6209025;28;20061;-65
2021/12/22 16:38:47;;;;;;;122.32;38.83;;;;;;;;;;6209940;28;20048;-63
2021/12/22 16:41:48;;;;;;;108.18;34.65;;;;;;;;;;6208174;28;20073;-76
2021/12/22 16:44:49;;;;;;;134.52;38.95;;;;;;;;;;6206296;28;20054;-66
2021/12/22 16:47:52;;;;;;;104.97;33.72;;;;;;;;;;6206401;28;20050;-65
2021/12/22 16:50:53;;;;;;;126.30;35.95;;;;;;;;;;6205579;28;20515;-64
2021/12/22 16:53:53;;;;;;;110.25;36.03;;;;;;;;;;6208310;28;20165;-62
2021/12/22 16:56:54;;;;;;;107.90;35.08;;;;;;;;;;6206063;28;20058;-62
2021/12/22 16:59:55;;;;;;;109.90;33.38;;;;;;;;;;6202759;28;20489;-67
2021/12/22 17:02:55;;;;;;;106.80;32.17;;;;;;;;;;6201997;28;20057;-64
2021/12/22 17:05:57;;;;;;;97.03;30.17;;;;;;;;;;6203370;28;20193;-66
2021/12/22 17:08:59;;;;;;;95.35;32.42;;;;;;;;;;6199578;28;20486;-65
2021/12/22 17:12:00;;;;;;;91.13;32.03;;;;;;;;;;6200723;28;20634;-67
2021/12/22 17:15:01;;;;;;;116.75;39.72;;;;;;;;;;6204287;28;20153;-64
2021/12/22 17:18:05;;;;;;;111.88;36.80;;;;;;;;;;6203638;28;20420;-67
2021/12/22 17:21:07;;;;;;;107.20;37.15;;;;;;;;;;6201846;28;20520;-68
2021/12/22 17:24:08;;;;;;;104.20;35.75;;;;;;;;;;6205960;28;20584;-66
2021/12/22 17:27:09;;;;;;;102.53;35.53;;;;;;;;;;6200201;28;20555;-67
2021/12/22 17:30:12;;;;;;;113.50;36.67;;;;;;;;;;6201263;28;20509;-66
2021/12/22 17:33:13;;;;;;;111.38;37.20;;;;;;;;;;6203579;28;20057;-63
2021/12/22 17:36:14;;;;;;;102.18;35.40;;;;;;;;;;6204269;28;20042;-64
2021/12/22 17:39:14;;;;;;;94.80;31.83;;;;;;;;;;6206117;28;20107;-64
2021/12/22 17:42:15;;;;;;;110.68;36.88;;;;;;;;;;6204437;28;20128;-62
2021/12/22 17:45:19;;;;;;;110.40;36.30;;;;;;;;;;6203922;28;20114;-65
2021/12/22 17:48:22;;;;;;;105.97;34.97;;;;;;;;;;6203432;28;20141;-65
2021/12/22 17:51:24;;;;;;;107.85;34.20;;;;;;;;;;6203031;28;20064;-65
2021/12/22 17:54:25;;;;;;;109.88;37.75;;;;;;;;;;6203651;28;20062;-68
2021/12/22 17:57:25;;;;;;;117.28;38.08;;;;;;;;;;6203480;28;20042;-66
2021/12/22 18:00:26;;;;;;;102.97;35.72;;;;;;;;;;6204346;28;20145;-68
2021/12/22 18:03:31;;;;;;;112.82;36.42;;;;;;;;;;6202147;28;20497;-69
2021/12/22 18:06:33;;;;;;;120.85;36.72;;;;;;;;;;6204140;28;21187;-69
2021/12/22 18:09:34;;;;;;;110.43;37.03;;;;;;;;;;6206252;28;20561;-67
2021/12/22 18:12:36;;;;;;;158.27;50.05;;;;;;;;;;6204719;28;20050;-67
2021/12/22 18:15:38;;;;;;;233.50;67.43;;;;;;;;;;6206304;28;20054;-69